createdAt,value
2023-07-12T00:00:45.521Z,100119.09
2023-07-12T00:03:12.521Z,100121.25
2023-07-12T00:05:39.533Z,100120.28
2023-07-12T00:08:07.109Z,100114.44
2023-07-12T00:10:36.517Z,100128.75
2023-07-12T00:13:03.665Z,100133.53
2023-07-12T00:15:32.201Z,100153.81
2023-07-12T00:17:59.053Z,100159.34
2023-07-12T00:20:31.064Z,100167.56
2023-07-12T00:22:58.118Z,100166.56
2023-07-12T00:25:27.141Z,100167.25
2023-07-12T00:27:54.334Z,100175.16
2023-07-12T00:30:32.568Z,100179.94
2023-07-12T00:33:03.835Z,100191.50
2023-07-12T00:35:32.040Z,100197.41
2023-07-12T00:38:00.772Z,100200.47
2023-07-12T00:40:42.955Z,100193.97
2023-07-12T00:43:34.122Z,100187.94
2023-07-12T00:46:02.685Z,100186.22
2023-07-12T00:48:29.502Z,100179.69
2023-07-12T00:50:56.239Z,100179.09
2023-07-12T00:53:24.804Z,100177.53
2023-07-12T00:56:00.225Z,100185.22
2023-07-12T00:58:30.801Z,100186.31
2023-07-12T01:00:58.601Z,100187.19
2023-07-12T01:03:28.009Z,100175.94
2023-07-12T01:05:54.779Z,100177.03
2023-07-12T01:08:22.052Z,100181.47
2023-07-12T01:10:49.341Z,100176.44
2023-07-12T01:13:22.144Z,100176.53
2023-07-12T01:15:49.472Z,100183.06
2023-07-12T01:18:16.380Z,100182.22
2023-07-12T01:20:44.643Z,100174.38
2023-07-12T01:23:11.379Z,100181.22
2023-07-12T01:25:40.940Z,100172.34
2023-07-12T01:28:07.738Z,100178.31
2023-07-12T01:30:35.547Z,100172.44
2023-07-12T01:33:02.445Z,100180.09
2023-07-12T01:35:29.344Z,100169.09
2023-07-12T01:37:56.040Z,100163.84
2023-07-12T01:40:22.887Z,100163.84
2023-07-12T01:42:49.758Z,100162.03
2023-07-12T01:45:16.553Z,100170.03
2023-07-12T01:47:45.344Z,100171.22
2023-07-12T01:50:11.986Z,100164.56
2023-07-12T01:52:38.744Z,100157.53
2023-07-12T01:55:05.848Z,100159.38
2023-07-12T01:57:32.762Z,100152.94
2023-07-12T01:59:59.413Z,100151.38
2023-07-12T02:02:29.500Z,100153.19
2023-07-12T02:04:56.380Z,100164.50
2023-07-12T02:07:23.143Z,100142.78
2023-07-12T02:10:12.344Z,100152.94
2023-07-12T02:12:39.471Z,100158.88
2023-07-12T02:15:06.936Z,100166.72
2023-07-12T02:17:33.909Z,100151.47
2023-07-12T02:20:01.419Z,100149.53
2023-07-12T02:22:30.929Z,100137.69
2023-07-12T02:24:58.099Z,100157.13
2023-07-12T02:27:26.129Z,100141.03
2023-07-12T02:29:53.436Z,100144.09
2023-07-12T02:32:22.240Z,100089.84
2023-07-12T02:34:50.207Z,100119.13
2023-07-12T02:37:18.202Z,100088.75
2023-07-12T02:39:46.580Z,100168.19
2023-07-12T02:42:13.395Z,100159.47
2023-07-12T02:44:40.764Z,100048.09
2023-07-12T02:47:09.352Z,99915.09
2023-07-12T02:49:36.044Z,99895.22
2023-07-12T02:52:04.754Z,99822.22
2023-07-12T02:54:35.315Z,99764.00
2023-07-12T02:57:02.803Z,99712.06
2023-07-12T02:59:29.912Z,99672.69
2023-07-12T03:01:56.758Z,99641.09
2023-07-12T03:04:23.984Z,99608.06
2023-07-12T03:06:50.767Z,99584.09
2023-07-12T03:09:18.030Z,99556.44
2023-07-12T03:11:48.763Z,99517.03
2023-07-12T03:14:20.079Z,99503.28
2023-07-12T03:16:47.206Z,99461.41
2023-07-12T03:19:15.140Z,99445.53
2023-07-12T03:21:42.275Z,99459.25
2023-07-12T03:24:10.072Z,99447.84
2023-07-12T03:26:37.429Z,99464.00
2023-07-12T03:29:05.459Z,99458.97
2023-07-12T03:31:32.326Z,99452.81
2023-07-12T03:34:00.253Z,99446.75
2023-07-12T03:36:32.736Z,99434.41
2023-07-12T03:39:00.564Z,99477.00
2023-07-12T03:41:27.649Z,99465.25
2023-07-12T03:43:54.440Z,99521.94
2023-07-12T03:46:21.570Z,99528.25
2023-07-12T03:48:48.446Z,99547.88
2023-07-12T03:51:15.911Z,99548.75
2023-07-12T03:53:42.599Z,99535.84
2023-07-12T03:56:10.196Z,99514.50
2023-07-12T03:58:39.393Z,99565.50
2023-07-12T04:01:09.810Z,99538.16
2023-07-12T04:03:37.777Z,99574.97
2023-07-12T04:06:05.466Z,99501.28
2023-07-12T04:08:33.138Z,99498.53
2023-07-12T04:11:00.512Z,99500.69
2023-07-12T04:13:28.126Z,99501.69
2023-07-12T04:15:57.463Z,99526.09
2023-07-12T04:18:25.668Z,99516.06
2023-07-12T04:20:56.543Z,99549.72
2023-07-12T04:23:23.390Z,99534.72
2023-07-12T04:25:58.423Z,99573.44
2023-07-12T04:28:25.228Z,99562.53
2023-07-12T04:30:51.856Z,99489.19
2023-07-12T04:33:18.608Z,99471.72
2023-07-12T04:35:45.361Z,99461.97
2023-07-12T04:38:12.086Z,99467.38
2023-07-12T04:40:38.833Z,99485.69
2023-07-12T04:43:05.508Z,99490.72
2023-07-12T04:45:32.241Z,99519.13
2023-07-12T04:47:59.126Z,99579.75
2023-07-12T04:50:25.826Z,99544.75
2023-07-12T04:52:52.551Z,99499.13
2023-07-12T04:55:25.103Z,99495.97
2023-07-12T04:57:52.221Z,99486.53
2023-07-12T05:00:19.060Z,99444.53
2023-07-12T05:02:47.931Z,99443.84
2023-07-12T05:05:14.886Z,99442.94
2023-07-12T05:07:42.292Z,99435.91
2023-07-12T05:10:11.698Z,99477.72
2023-07-12T05:12:39.549Z,99466.78
2023-07-12T05:15:07.987Z,99435.44
2023-07-12T05:17:39.238Z,99451.81
2023-07-12T05:20:09.310Z,99466.38
2023-07-12T05:22:36.034Z,99460.75
2023-07-12T05:25:02.779Z,99453.94
2023-07-12T05:27:29.494Z,99406.59
2023-07-12T05:29:56.225Z,99384.72
2023-07-12T05:32:23.263Z,99379.66
2023-07-12T05:34:49.984Z,99369.78
2023-07-12T05:37:17.791Z,99419.19
2023-07-12T05:39:44.812Z,99428.06
2023-07-12T05:42:11.477Z,99394.16
2023-07-12T05:44:38.276Z,99399.31
2023-07-12T05:47:05.417Z,99382.13
2023-07-12T05:49:32.338Z,99374.69
2023-07-12T05:52:00.857Z,99366.47
2023-07-12T05:54:27.560Z,99380.31
2023-07-12T05:56:54.274Z,99402.19
2023-07-12T05:59:21.924Z,99413.88
2023-07-12T06:01:48.586Z,99398.47
2023-07-12T06:04:15.423Z,99400.22
2023-07-12T06:06:42.305Z,99441.16
2023-07-12T06:09:09.117Z,99422.03
2023-07-12T06:11:35.953Z,99435.16
2023-07-12T06:14:02.726Z,99431.03
2023-07-12T06:16:29.457Z,99406.44
2023-07-12T06:18:56.215Z,99417.16
2023-07-12T06:21:23.093Z,99368.88
2023-07-12T06:23:50.703Z,99387.03
2023-07-12T06:26:17.470Z,99380.00
2023-07-12T06:28:44.254Z,99384.94
2023-07-12T06:31:11.113Z,99389.38
2023-07-12T06:33:39.986Z,99381.91
2023-07-12T06:36:07.090Z,99363.09
2023-07-12T06:38:33.893Z,99369.34
2023-07-12T06:41:00.742Z,99372.06
2023-07-12T06:43:27.575Z,99369.75
2023-07-12T06:45:56.549Z,99362.88
2023-07-12T06:48:24.326Z,99359.69
2023-07-12T06:50:51.172Z,99354.06
2023-07-12T06:53:17.944Z,99348.31
2023-07-12T06:55:45.624Z,99351.69
2023-07-12T06:58:12.434Z,99344.50
2023-07-12T07:00:43.281Z,99342.13
2023-07-12T07:03:11.096Z,99344.75
2023-07-12T07:05:40.232Z,99345.69
2023-07-12T07:08:07.190Z,99345.19
2023-07-12T07:10:34.465Z,99344.34
2023-07-12T07:13:01.662Z,99343.81
2023-07-12T07:15:28.376Z,99339.50
2023-07-12T07:17:55.318Z,99348.69
2023-07-12T07:20:22.755Z,99337.06
2023-07-12T07:22:49.736Z,99342.13
2023-07-12T07:25:20.850Z,99334.88
2023-07-12T07:27:48.794Z,99348.09
2023-07-12T07:30:15.767Z,99336.09
2023-07-12T07:32:42.599Z,99328.81
2023-07-12T07:35:10.016Z,99325.88
2023-07-12T07:37:36.838Z,99325.81
2023-07-12T07:40:04.669Z,99329.50
2023-07-12T07:42:31.794Z,99326.19
2023-07-12T07:44:58.696Z,99323.94
2023-07-12T07:47:25.529Z,99328.53
2023-07-12T07:49:52.340Z,99334.84
2023-07-12T07:52:19.103Z,99325.75
2023-07-12T07:54:45.847Z,99328.13
2023-07-12T07:57:13.104Z,99328.25
2023-07-12T07:59:39.797Z,99323.63
2023-07-12T08:02:09.719Z,99325.34
2023-07-12T08:04:38.126Z,99311.03
2023-07-12T08:07:08.777Z,99314.50
2023-07-12T08:09:36.877Z,99312.31
2023-07-12T08:12:04.620Z,99303.34
2023-07-12T08:14:31.362Z,99303.22
2023-07-12T08:16:58.050Z,99315.66
2023-07-12T08:19:24.749Z,99319.41
2023-07-12T08:21:51.603Z,99329.28
2023-07-12T08:24:18.529Z,99331.19
2023-07-12T08:26:51.252Z,99327.25
2023-07-12T08:29:25.270Z,99323.78
2023-07-12T08:31:54.193Z,99316.22
2023-07-12T08:34:20.952Z,99314.97
2023-07-12T08:36:47.705Z,99328.69
2023-07-12T08:39:14.334Z,99306.41
2023-07-12T08:41:41.139Z,99297.78
2023-07-12T08:44:13.290Z,99299.53
2023-07-12T08:46:45.322Z,99294.06
2023-07-12T08:49:12.611Z,99290.91
2023-07-12T08:51:42.229Z,99307.78
2023-07-12T08:54:26.430Z,99306.44
2023-07-12T08:57:23.742Z,99293.75
2023-07-12T09:00:12.670Z,99300.22
2023-07-12T09:02:45.279Z,99294.66
2023-07-12T09:05:17.869Z,99306.00
2023-07-12T09:07:53.640Z,99304.03
2023-07-12T09:10:40.664Z,99289.00
2023-07-12T09:13:11.094Z,99295.53
2023-07-12T09:15:53.440Z,99289.94
2023-07-12T09:18:31.346Z,99286.34
2023-07-12T09:21:00.576Z,99273.78
2023-07-12T09:23:38.579Z,99284.66
2023-07-12T09:26:30.787Z,99283.09
2023-07-12T09:29:01.235Z,99277.47
2023-07-12T09:31:31.847Z,99272.56
2023-07-12T09:34:04.588Z,99281.28
2023-07-12T09:36:31.469Z,99292.44
2023-07-12T09:39:03.860Z,99288.88
2023-07-12T09:41:30.510Z,99289.44
2023-07-12T09:44:01.662Z,99299.31
2023-07-12T09:46:38.590Z,99294.66
2023-07-12T09:49:12.716Z,99280.50
2023-07-12T09:51:54.643Z,99289.25
2023-07-12T09:54:24.328Z,99286.56
2023-07-12T09:56:56.513Z,99295.56
2023-07-12T09:59:36.001Z,99280.63
2023-07-12T10:02:34.363Z,99279.84
2023-07-12T10:05:06.162Z,99285.47
2023-07-12T10:07:38.895Z,99281.44
2023-07-12T10:10:17.854Z,99273.63
2023-07-12T10:13:04.807Z,99261.13
2023-07-12T10:15:34.792Z,99290.47
2023-07-12T10:18:06.521Z,99286.78
2023-07-12T10:20:33.795Z,99273.47
2023-07-12T10:23:00.774Z,99274.75
2023-07-12T10:25:34.511Z,99291.50
2023-07-12T10:28:14.576Z,99270.47
2023-07-12T10:30:43.271Z,99276.22
2023-07-12T10:33:25.700Z,99270.88
2023-07-12T10:36:04.218Z,99269.22
2023-07-12T10:38:31.387Z,99245.56
2023-07-12T10:41:02.646Z,99247.78
2023-07-12T10:43:36.240Z,99237.78
2023-07-12T10:46:22.157Z,99217.69
2023-07-12T10:48:51.589Z,99237.84
2023-07-12T10:51:38.213Z,99231.38
2023-07-12T10:54:06.130Z,99230.44
2023-07-12T10:56:56.071Z,99245.34
2023-07-12T10:59:32.215Z,99240.13
2023-07-12T11:02:05.107Z,99232.28
2023-07-12T11:04:31.936Z,99239.25
2023-07-12T11:07:05.220Z,99245.47
2023-07-12T11:10:00.990Z,99256.13
2023-07-12T11:12:30.671Z,99244.41
2023-07-12T11:15:06.533Z,99253.28
2023-07-12T11:17:51.844Z,99249.25
2023-07-12T11:20:27.362Z,99239.56
2023-07-12T11:22:59.027Z,99242.97
2023-07-12T11:25:30.620Z,99251.50
2023-07-12T11:28:00.840Z,99246.81
2023-07-12T11:30:33.265Z,99244.88
2023-07-12T11:33:11.406Z,99246.94
2023-07-12T11:36:11.158Z,99249.56
2023-07-12T11:38:38.998Z,99245.63
2023-07-12T11:41:16.598Z,99251.66
2023-07-12T11:43:43.531Z,99254.56
2023-07-12T11:46:15.020Z,99250.00
2023-07-12T11:48:44.671Z,99233.94
2023-07-12T11:51:20.595Z,99232.72
2023-07-12T11:53:56.446Z,99248.03
2023-07-12T11:56:23.415Z,99247.16
2023-07-12T11:58:50.239Z,99240.28
2023-07-12T12:01:19.114Z,99231.94
2023-07-12T12:03:49.215Z,99240.44
2023-07-12T12:06:16.293Z,99233.78
2023-07-12T12:08:48.310Z,99229.97
2023-07-12T12:11:15.720Z,99223.72
2023-07-12T12:13:47.524Z,99222.59
2023-07-12T12:16:28.901Z,99218.66
2023-07-12T12:18:59.436Z,99208.16
2023-07-12T12:21:27.621Z,99215.63
2023-07-12T12:24:05.241Z,99207.81
2023-07-12T12:26:38.516Z,99211.59
2023-07-12T12:29:25.220Z,99213.38
2023-07-12T12:31:55.677Z,99214.44
2023-07-12T12:34:26.882Z,99206.34
2023-07-12T12:37:00.258Z,99211.59
2023-07-12T12:39:28.342Z,99205.94
2023-07-12T12:41:57.070Z,99200.72
2023-07-12T12:44:32.004Z,99206.97
2023-07-12T12:55:09.160Z,99190.84
2023-07-12T13:05:32.738Z,99184.53
2023-07-12T13:18:28.714Z,99164.38
2023-07-12T13:20:54.758Z,99159.69
2023-07-12T13:23:24.800Z,99165.91
2023-07-12T13:25:52.709Z,99155.38
2023-07-12T13:28:20.331Z,99166.16
2023-07-12T13:30:47.056Z,99153.97
2023-07-12T13:33:16.462Z,99141.94
2023-07-12T13:40:48.047Z,99121.97
2023-07-12T13:44:35.762Z,99126.63
2023-07-12T13:46:17.762Z,99114.72
2023-07-12T13:48:44.655Z,99108.56
2023-07-12T13:51:21.470Z,99133.50
2023-07-12T13:53:49.331Z,99124.13
2023-07-12T14:03:45.331Z,99113.56
2023-07-12T14:06:28.326Z,99118.25
2023-07-12T14:09:00.512Z,99115.63
2023-07-12T14:11:31.501Z,99111.44
2023-07-12T14:13:58.495Z,99094.06
2023-07-12T14:16:26.990Z,99116.63
2023-07-12T14:18:54.167Z,99121.63
2023-07-12T14:21:22.294Z,99116.91
2023-07-12T14:23:50.176Z,99118.44
2023-07-12T14:26:19.138Z,99120.94
2023-07-12T14:28:55.325Z,99108.56
2023-07-12T14:31:24.093Z,99106.88
2023-07-12T14:33:53.058Z,99102.53
2023-07-12T14:36:22.038Z,99097.03
2023-07-12T14:38:48.943Z,99112.75
2023-07-12T14:41:22.664Z,99109.97
2023-07-12T14:43:49.851Z,99109.97
2023-07-12T14:46:18.370Z,99109.63
2023-07-12T14:48:46.101Z,99113.44
2023-07-12T14:51:20.104Z,99112.25
2023-07-12T14:53:50.818Z,99108.16
2023-07-12T14:56:20.985Z,99107.56
2023-07-12T14:58:48.384Z,99103.44
2023-07-12T15:01:23.843Z,99092.91
2023-07-12T15:03:54.979Z,99093.53
2023-07-12T15:06:23.997Z,99076.97
2023-07-12T15:08:53.196Z,99072.75
2023-07-12T15:11:27.439Z,99096.63
2023-07-12T15:13:54.796Z,99078.34
2023-07-12T15:16:23.555Z,99075.38
2023-07-12T15:18:50.988Z,99078.75
2023-07-12T15:21:33.657Z,99094.97
2023-07-12T15:24:00.417Z,99057.78
2023-07-12T15:26:28.006Z,99084.47
2023-07-12T15:28:54.791Z,99077.44
2023-07-12T15:31:33.798Z,99093.19
2023-07-12T15:34:01.861Z,99093.19
2023-07-12T15:36:31.073Z,99088.34
2023-07-12T15:38:59.108Z,99092.44
2023-07-12T15:41:27.532Z,99077.84
2023-07-12T15:43:56.250Z,99074.19
2023-07-12T15:46:31.078Z,99079.09
2023-07-12T15:48:58.822Z,99089.00
2023-07-12T15:51:44.462Z,99094.75
2023-07-12T15:54:22.022Z,99085.19
2023-07-12T15:56:50.490Z,99085.03
2023-07-12T15:59:18.183Z,99074.19
2023-07-12T16:01:45.013Z,99068.72
2023-07-12T16:04:23.112Z,99073.22
2023-07-12T16:06:52.563Z,99070.06
2023-07-12T16:09:19.322Z,99068.53
2023-07-12T16:11:47.892Z,99069.56
2023-07-12T16:14:19.755Z,99092.16
2023-07-12T16:16:46.893Z,99068.34
2023-07-12T16:19:16.091Z,99047.59
2023-07-12T16:21:43.265Z,99066.97
2023-07-12T16:24:11.406Z,99073.53
2023-07-12T16:26:38.273Z,99074.59
2023-07-12T16:29:07.779Z,99087.03
2023-07-12T16:31:42.302Z,99078.72
2023-07-12T16:34:25.354Z,99084.38
2023-07-12T16:36:55.836Z,99077.06
2023-07-12T16:39:23.121Z,99082.88
2023-07-12T16:41:50.311Z,99079.03
2023-07-12T16:44:25.069Z,99075.84
2023-07-12T16:46:51.923Z,99069.47
2023-07-12T16:49:18.940Z,99073.03
2023-07-12T16:52:00.590Z,99071.94
2023-07-12T16:54:28.904Z,99064.16
2023-07-12T16:56:56.072Z,99069.63
2023-07-12T16:59:25.385Z,99071.28
2023-07-12T17:01:52.233Z,99081.03
2023-07-12T17:04:20.194Z,99055.38
2023-07-12T17:06:47.494Z,99086.16
2023-07-12T17:09:25.836Z,99081.28
2023-07-12T17:11:54.689Z,99070.91
2023-07-12T17:14:22.147Z,99084.84
2023-07-12T17:16:49.410Z,99088.81
2023-07-12T17:19:16.231Z,99089.16
2023-07-12T17:21:43.446Z,99088.34
2023-07-12T17:24:13.759Z,99101.66
2023-07-12T17:26:40.929Z,99094.53
2023-07-12T17:29:07.924Z,99095.19
2023-07-12T17:31:37.377Z,99103.34
2023-07-12T17:34:21.906Z,99105.94
2023-07-12T17:36:49.176Z,99111.22
2023-07-12T17:39:16.263Z,99108.28
2023-07-12T17:41:43.914Z,99119.00
2023-07-12T17:44:17.711Z,99109.31
2023-07-12T17:46:45.061Z,99103.69
2023-07-12T17:49:11.797Z,99107.25
2023-07-12T17:51:38.676Z,99101.34
2023-07-12T17:54:06.924Z,99107.41
2023-07-12T17:56:33.677Z,99129.28
2023-07-12T17:59:00.891Z,99128.31
2023-07-12T18:01:29.428Z,99132.63
2023-07-12T18:03:56.722Z,99143.53
2023-07-12T18:06:34.564Z,99141.94
2023-07-12T18:09:02.063Z,99159.13
2023-07-12T18:11:37.887Z,99167.34
2023-07-12T18:14:05.797Z,99171.66
2023-07-12T18:16:34.393Z,99171.00
2023-07-12T18:19:01.552Z,99170.75
2023-07-12T18:21:33.347Z,99170.66
2023-07-12T18:24:01.128Z,99185.00
2023-07-12T18:26:28.961Z,99187.56
2023-07-12T18:28:56.731Z,99203.13
2023-07-12T18:31:30.804Z,99199.09
2023-07-12T18:33:58.756Z,99197.03
2023-07-12T18:36:26.261Z,99216.22
2023-07-12T18:38:55.699Z,99228.81
2023-07-12T18:41:26.913Z,99233.88
2023-07-12T18:43:54.528Z,99245.78
2023-07-12T18:46:24.148Z,99261.44
2023-07-12T18:48:51.223Z,99258.66
2023-07-12T18:51:33.700Z,99236.97
2023-07-12T18:54:01.351Z,99262.44
2023-07-12T18:56:31.044Z,99270.41
2023-07-12T18:58:59.789Z,99259.06
2023-07-12T19:01:37.148Z,99270.28
2023-07-12T19:04:07.406Z,99266.50
2023-07-12T19:06:36.791Z,99280.06
2023-07-12T19:09:05.259Z,99281.75
2023-07-12T19:11:51.112Z,99287.34
2023-07-12T19:14:23.712Z,99284.28
2023-07-12T19:16:51.322Z,99282.84
2023-07-12T19:19:20.542Z,99287.91
2023-07-12T19:21:48.723Z,99292.25
2023-07-12T19:24:15.833Z,99289.88
2023-07-12T19:26:42.553Z,99292.94
2023-07-12T19:29:09.618Z,99270.16
2023-07-12T19:31:42.193Z,99289.06
2023-07-12T19:34:17.445Z,99292.97
2023-07-12T19:36:44.477Z,99299.97
2023-07-12T19:39:11.724Z,99302.22
2023-07-12T19:41:38.546Z,99313.53
2023-07-12T19:44:05.910Z,99302.06
2023-07-12T19:46:33.063Z,99313.38
2023-07-12T19:48:59.924Z,99304.66
2023-07-12T19:51:29.720Z,99324.28
2023-07-12T19:54:01.478Z,99303.53
2023-07-12T19:56:28.341Z,99322.13
2023-07-12T19:58:59.647Z,99324.34
2023-07-12T20:01:27.904Z,99310.47
2023-07-12T20:03:56.255Z,99307.22
2023-07-12T20:06:24.075Z,99311.72
2023-07-12T20:08:51.960Z,99323.78
2023-07-12T20:11:22.368Z,99315.56
2023-07-12T20:13:49.860Z,99314.44
2023-07-12T20:16:19.543Z,99313.47
2023-07-12T20:18:46.493Z,99313.75
2023-07-12T20:21:13.578Z,99298.91
2023-07-12T20:23:40.597Z,99306.75
2023-07-12T20:26:07.855Z,99314.03
2023-07-12T20:28:34.967Z,99303.50
2023-07-12T20:31:01.703Z,99306.84
2023-07-12T20:33:29.178Z,99310.34
2023-07-12T20:35:56.008Z,99318.19
2023-07-12T20:38:23.057Z,99315.69
2023-07-12T20:40:49.959Z,99306.22
2023-07-12T20:43:16.839Z,99298.09
2023-07-12T20:45:43.603Z,99295.97
2023-07-12T20:48:13.633Z,99299.75
2023-07-12T20:50:40.893Z,99305.50
2023-07-12T20:53:11.603Z,99317.47
2023-07-12T20:55:38.571Z,99325.97
2023-07-12T20:58:06.914Z,99344.81
2023-07-12T21:00:49.859Z,99331.97
2023-07-12T21:03:17.692Z,99337.09
2023-07-12T21:05:45.290Z,99324.25
2023-07-12T21:08:13.847Z,99315.59
2023-07-12T21:10:40.792Z,99319.66
2023-07-12T21:13:07.559Z,99316.84
2023-07-12T21:15:34.267Z,99317.81
2023-07-12T21:18:01.052Z,99312.50
2023-07-12T21:20:29.317Z,99291.34
2023-07-12T21:22:56.847Z,99298.22
2023-07-12T21:25:23.855Z,99312.38
2023-07-12T21:27:50.640Z,99323.28
2023-07-12T21:30:17.492Z,99319.91
2023-07-12T21:32:44.305Z,99327.75
2023-07-12T21:35:11.113Z,99323.38
2023-07-12T21:37:37.944Z,99313.63
2023-07-12T21:40:05.902Z,99322.03
2023-07-12T21:42:32.674Z,99315.75
2023-07-12T21:44:59.433Z,99314.19
2023-07-12T21:47:26.184Z,99316.97
2023-07-12T21:49:52.974Z,99327.75
2023-07-12T21:52:19.857Z,99330.09
2023-07-12T21:54:46.599Z,99333.28
2023-07-12T21:57:13.329Z,99340.72
2023-07-12T21:59:40.225Z,99333.22
2023-07-12T22:02:07.010Z,99343.28
2023-07-12T22:04:34.155Z,99345.34
2023-07-12T22:07:01.029Z,99346.91
2023-07-12T22:09:27.845Z,99338.25
2023-07-12T22:11:55.252Z,99339.78
2023-07-12T22:14:21.937Z,99318.78
2023-07-12T22:16:48.640Z,99329.88
2023-07-12T22:19:15.455Z,99299.19
2023-07-12T22:21:42.218Z,99316.88
2023-07-12T22:24:09.177Z,99331.97
2023-07-12T22:26:35.891Z,99324.06
2023-07-12T22:29:02.793Z,99346.91
2023-07-12T22:31:29.996Z,99346.75
2023-07-12T22:33:56.946Z,99357.41
2023-07-12T22:36:23.806Z,99360.75
2023-07-12T22:38:50.940Z,99355.41
2023-07-12T22:41:18.053Z,99364.09
2023-07-12T22:43:44.781Z,99353.88
2023-07-12T22:46:12.000Z,99351.34
2023-07-12T22:48:40.099Z,99359.91
2023-07-12T22:51:07.041Z,99361.13
2023-07-12T22:53:33.826Z,99354.72
2023-07-12T22:56:03.443Z,99358.06
2023-07-12T22:58:30.955Z,99362.41
2023-07-12T23:00:59.648Z,99368.25
2023-07-12T23:03:27.126Z,99368.66
2023-07-12T23:05:57.919Z,99373.06
2023-07-12T23:08:26.768Z,99396.00
2023-07-12T23:10:54.695Z,99390.09
2023-07-12T23:13:23.291Z,99384.53
2023-07-12T23:15:52.071Z,99385.56
2023-07-12T23:18:22.699Z,99401.78
2023-07-12T23:20:51.073Z,99372.34
2023-07-12T23:23:20.899Z,99415.38
2023-07-12T23:25:48.503Z,99423.13
2023-07-12T23:28:16.101Z,99437.13
2023-07-12T23:30:43.493Z,99449.41
2023-07-12T23:33:10.344Z,99435.41
2023-07-12T23:35:37.538Z,99444.81
2023-07-12T23:38:04.463Z,99462.53
2023-07-12T23:40:31.515Z,99456.31
2023-07-12T23:42:58.319Z,99471.53
2023-07-12T23:45:25.188Z,99452.34
2023-07-12T23:47:54.820Z,99476.09
2023-07-12T23:50:22.480Z,99488.78
2023-07-12T23:52:50.708Z,99492.66
2023-07-12T23:55:18.115Z,99485.56
2023-07-12T23:57:45.289Z,99477.00
